This is the latest recevied weather packets stored in our database for station/object IU8HRV-10. If no packets are shown the sender has not sent any weather packets the latest 10 day(s).
| Time | Temp. | Humidity | Pressure | Rain* | Wind** | Luminosity | Snow |
|---|---|---|---|---|---|---|---|
| 1777863048 | 16.11° C | 45% | 1020 hPa | - | - | - | - |
| 1777844124 | 22.22° C | 36% | 1020 hPa | - | - | - | - |
| 1777840520 | 24.44° C | 33% | 1020 hPa | - | - | - | - |
| 1777839619 | 25° C | 32% | 1020 hPa | - | - | - | - |
| 1777838718 | 25° C | 33% | 1020 hPa | - | - | - | - |
| 1777836916 | 25° C | 32% | 1020 hPa | - | - | - | - |
| 1777835114 | 25.56° C | 32% | 1020 hPa | - | - | - | - |
| 1777817993 | 29.44° C | 27% | 1020 hPa | - | - | - | - |
| 1777800872 | 21.67° C | 34% | 1021 hPa | - | - | - | - |
| 1777799971 | 21.67° C | 34% | 1021 hPa | - | - | - | - |
| 1777799070 | 22.22° C | 33% | 1021 hPa | - | - | - | - |
| 1777798169 | 22.22° C | 33% | 1021 hPa | - | - | - | - |
| 1777797268 | 21.11° C | 36% | 1021 hPa | - | - | - | - |
| 1777796367 | 20.56° C | 37% | 1021 hPa | - | - | - | - |
| 1777795465 | 20° C | 37% | 1021 hPa | - | - | - | - |
| 1777794564 | 18.33° C | 41% | 1021 hPa | - | - | - | - |
| 1777793663 | 18.89° C | 38% | 1021 hPa | - | - | - | - |
| 1777792762 | 18.89° C | 35% | 1021 hPa | - | - | - | - |
| 1777791861 | 19.44° C | 31% | 1021 hPa | - | - | - | - |
| 1777790960 | 19.44° C | 31% | 1021 hPa | - | - | - | - |
| 1777790058 | 17.22° C | 35% | 1021 hPa | - | - | - | - |
| 1777789157 | 16.11° C | 37% | 1021 hPa | - | - | - | - |
| 1777788256 | 15.56° C | 38% | 1021 hPa | - | - | - | - |
| 1777787355 | 15.56° C | 37% | 1021 hPa | - | - | - | - |
| 1777786454 | 15.56° C | 38% | 1021 hPa | - | - | - | - |
* Rain since midnight (hover to see other rain measurements)
** Current wind speed in m/s (hover to see current wind gust speed)